West Akron, Ohio
Current Conditions -  °F | °C
As of 3:31 PM on Tuesday 25 Nov 2014 (Local Time) from KAKR Reporting Station
Overcast Overcast  
Wind Chill: 29°   Ceiling: 2900
Heat Index: 38°   Visibility: 10mi
Dew Point: 26°   Wind: 16mph
Humidity: 62%   Direction: 260°W
Pressure: 30.08"   Gusts: NA
Location:  41.0707°N, 81.5458°W
Report Text: KAKR 252031Z AUTO 26014KT 10SM OVC029 03/M03 A3008 RMK AO2 T00331033 $
Loading
Personal Weather Stations






























Interactive Weather Map New forecast layout! Learn more

10-Day Weather Forecast

Advertisements
Track Severe Weather on mobile